WEATHER DATA

YESTERDAY
Time Temp. Dewp. Hum. Wind dir Wind speed Wind gust Bar. 1h Prec. 24h Prec.
00:00 24.5 17 63 165 0.6 1.1 1017 0.0000 0.0000
00:09 24.4 16.9 63 178 0.6 1.1 1016.8 0.0000 0.0000
00:20 24.3 16.8 63 180 0.3 0.8 1016.9 0.0000 0.0000
00:30 24.3 17.1 64 225 0.3 1.4 1016.8 0.0000 0.0000
00:40 24.2 17.2 65 194 0.3 0.8 1016.5 0.0000 0.0000
00:50 24.1 17.1 65 196 0.3 0.8 1016.4 0.0000 0.0000
01:00 23.9 17.2 66 185 0.3 1.1 1016.3 0.0000 0.0000
01:10 23.8 17.1 66 185 0.3 1.1 1016.3 0.0000 0.0000
01:20 23.6 16.9 66 177 0.3 1.1 1016.3 0.0000 0.0000
01:30 23.5 16.8 66 171 0.6 1.4 1016.4 0.0000 0.0000
01:40 23.4 16.9 67 167 0.6 1.7 1016.2 0.0000 0.0000
01:50 23.4 17.2 68 180 0.6 1.7 1016.2 0.0000 0.0000
02:00 23.3 17.1 68 181 0.8 1.7 1016.5 0.0000 0.0000
02:10 23.2 17.2 69 180 0.6 1.1 1016.3 0.0000 0.0000
02:20 23.1 17.1 69 191 0.6 1.1 1016.2 0.0000 0.0000
02:30 23.1 17.1 69 207 0.6 1.4 1016.2 0.0000 0.0000
02:50 23 17.2 70 209 0.6 1.4 1015.8 0.0000 0.0000
03:00 22.9 17.1 70 207 0.6 1.4 1015.8 0.0000 0.0000
03:10 22.8 17.3 71 203 0.3 1.1 1015.9 0.0000 0.0000
03:20 22.7 17.2 71 203 0.3 1.1 1015.9 0.0000 0.0000
03:41 22.5 17.2 72 212 0.6 1.7 1015.8 0.0000 0.0000
03:50 22.4 17.1 72 210 0.3 0.8 1015.8 0.0000 0.0000
04:00 22.3 17.2 73 188 0.6 1.1 1015.7 0.0000 0.0000
04:10 22.2 17.1 73 186 0.3 0.8 1015.8 0.0000 0.0000
04:21 22.2 17.1 73 175 0.3 0.8 1015.9 0.0000 0.0000
04:30 22.1 17 73 165 0.6 1.4 1015.9 0.0000 0.0000
04:40 22 17.2 74 178 0.6 1.1 1016.1 0.0000 0.0000
04:51 21.9 17.3 75 181 0.6 1.1 1016.3 0.0000 0.0000
05:00 21.8 17.4 76 159 0.6 1.7 1016.3 0.0000 0.0000
05:20 21.7 17.5 77 172 0.6 1.4 1016.6 0.0000 0.0000
05:31 21.6 17.6 78 218 0.3 1.1 1016.9 0.0000 0.0000
05:40 21.6 17.6 78 160 0.3 1.1 1016.8 0.0000 0.0000
05:50 21.6 17.8 79 146 0.6 1.4 1016.9 0.0000 0.0000
06:01 21.8 18 79 143 0.6 1.4 1016.9 0.0000 0.0000
06:10 21.9 17.9 78 169 0.6 1.4 1017 0.0000 0.0000
06:31 23.1 18.8 77 174 0.3 0.8 1017.4 0.0000 0.0000
06:41 24.7 19.3 72 161 0.3 0.8 1017.1 0.0000 0.0000
06:50 26.1 19.7 68 143 0.6 0.8 1017.4 0.0000 0.0000
07:00 27.6 20.4 65 153 0.3 0.8 1017.4 0.0000 0.0000
07:11 29 20.7 61 189 0.3 0.8 1017.4 0.0000 0.0000
07:21 30.3 21.1 58 225 0.3 1.4 1017.4 0.0000 0.0000
07:30 31.3 21.5 56 194 0.3 1.1 1017.5 0.0000 0.0000
07:41 32.2 21.4 53 206 0.3 0.8 1017.5 0.0000 0.0000
07:51 32.7 21.2 51 347 0.3 1.4 1017.6 0.0000 0.0000
08:00 33.2 20.4 47 349 0.8 1.9 1017.8 0.0000 0.0000
08:10 33.5 21.3 49 239 0.3 1.4 1017.7 0.0000 0.0000
08:21 34.3 21.4 47 225 0.6 1.7 1017.6 0.0000 0.0000
08:31 34.8 21.1 45 347 0.6 1.9 1017.6 0.0000 0.0000
08:40 34.5 20.5 44 351 0.6 1.4 1017.6 0.0000 0.0000
08:51 34.8 21.1 45 299 0.6 1.4 1017.5 0.0000 0.0000
09:01 35.6 21.8 45 220 0.6 1.4 1017.5 0.0000 0.0000
09:21 35.5 21 43 345 0.6 1.9 1017.6 0.0000 0.0000
09:31 35.6 21.1 43 350 0.6 1.9 1017.6 0.0000 0.0000
09:41 35.4 20.1 41 357 0.8 2.2 1017.4 0.0000 0.0000
09:50 35.6 21.5 44 229 0.8 1.9 1017.6 0.0000 0.0000
10:01 35.9 21.4 43 315 0.6 1.4 1017.7 0.0000 0.0000
10:11 36.6 21.6 42 225 0.6 1.4 1017.5 0.0000 0.0000
10:21 37.4 21.9 41 255 0.6 2.2 1017.4 0.0000 0.0000
10:31 37.6 21.3 39 270 0.8 1.7 1017.5 0.0000 0.0000
10:41 37.6 20.9 38 338 0.8 2.5 1017.5 0.0000 0.0000
11:01 37.7 22.2 41 177 0.6 1.7 1017.2 0.0000 0.0000
11:11 38.4 21.6 38 225 0.8 2.8 1017.4 0.0000 0.0000
11:21 38.2 21.4 38 198 0.6 1.9 1017 0.0000 0.0000
11:31 38 22 40 245 0.8 2.5 1017 0.0000 0.0000
11:41 38.2 21 37 324 1.1 2.8 1016.8 0.0000 0.0000
11:51 38.3 21 37 199 1.1 2.5 1016.8 0.0000 0.0000
12:11 39 21.2 36 237 1.1 3.6 1016.5 0.0000 0.0000
12:21 38.7 20.9 36 329 0.8 2.2 1016.5 0.0000 0.0000
12:41 37.8 20.6 37 335 1.1 2.5 1016.2 0.0000 0.0000
13:01 38.6 21.3 37 246 0.6 1.4 1015.8 0.0000 0.0000
13:11 38.6 20.9 36 333 1.4 3.6 1015.7 0.0000 0.0000
13:21 38.6 20.9 36 321 0.8 2.5 1015.5 0.0000 0.0000
13:31 38.8 20.6 35 252 1.1 2.5 1015.6 0.0000 0.0000
13:41 39.1 20.4 34 234 0.8 2.2 1015.4 0.0000 0.0000
14:02 38.9 20.2 34 214 1.1 3.1 1014.8 0.0000 0.0000
14:11 38.3 19.7 34 320 0.8 1.7 1014.8 0.0000 0.0000
14:21 38.5 19.8 34 315 0.8 2.5 1014.8 0.0000 0.0000
14:32 38.8 20.1 34 247 1.1 4.2 1014.4 0.0000 0.0000
14:42 38.6 19.9 34 253 1.1 3.6 1014.3 0.0000 0.0000
14:51 38.6 19.9 34 249 1.1 3.6 1013.8 0.0000 0.0000
15:12 38.4 19.3 33 296 1.1 3.1 1014.1 0.0000 0.0000
15:21 37.9 18.8 33 349 1.4 3.3 1013.9 0.0000 0.0000
15:31 37 19 35 259 1.1 2.5 1013.7 0.0000 0.0000
15:42 36.2 18.3 35 232 0.6 1.9 1013.6 0.0000 0.0000
15:52 35.8 18.4 36 247 0.6 2.2 1013.4 0.0000 0.0000
16:01 36 18.6 36 335 1.1 3.3 1013.6 0.0000 0.0000
16:11 36.2 18.8 36 261 1.1 2.5 1013.4 0.0000 0.0000
16:22 36.3 17.9 34 288 1.1 2.5 1013.4 0.0000 0.0000
16:32 36.5 18.6 35 297 1.1 3.1 1013.4 0.0000 0.0000
16:41 36.1 17.8 34 240 0.6 1.9 1013.4 0.0000 0.0000
16:52 35.6 17.8 35 259 0.8 2.5 1013.2 0.0000 0.0000
17:02 35.2 17.9 36 270 0.8 3.1 1013 0.0000 0.0000
17:12 34.8 18 37 241 1.1 2.8 1012.9 0.0000 0.0000
17:22 34.4 17.6 37 240 0.6 1.7 1013.1 0.0000 0.0000
17:32 34.2 17.4 37 226 1.4 2.8 1013.1 0.0000 0.0000
17:42 33.8 17.5 38 225 1.1 3.3 1013 0.0000 0.0000
17:52 33.5 17.2 38 226 1.1 2.5 1013.4 0.0000 0.0000
18:02 33.2 17 38 228 1.1 2.8 1013.6 0.0000 0.0000
18:12 32.9 17.1 39 225 0.6 1.7 1013.7 0.0000 0.0000
18:22 32.6 17.3 40 246 0.6 1.7 1013.4 0.0000 0.0000
18:32 32.3 17 40 270 0.6 1.7 1013.1 0.0000 0.0000
18:43 32 17.1 41 225 0.3 1.4 1013.2 0.0000 0.0000
18:52 31.8 17.3 42 234 0.6 1.4 1013.6 0.0000 0.0000
19:02 31.5 17 42 225 0.6 1.4 1013.7 0.0000 0.0000
19:13 31.1 17.1 43 227 0.6 1.7 1013.5 0.0000 0.0000
19:22 30.9 16.9 43 315 0.3 1.1 1013.7 0.0000 0.0000
19:32 30.6 17 44 270 0.3 1.4 1013.5 0.0000 0.0000
19:43 30.4 17.1 45 221 0.3 1.4 1013.5 0.0000 0.0000
19:53 30.1 16.9 45 218 0.8 1.7 1013.5 0.0000 0.0000
20:02 29.9 17 46 225 0.6 1.1 1013.4 0.0000 0.0000
20:12 29.7 17.2 47 204 0.3 1.1 1013.7 0.0000 0.0000
20:23 29.5 17 47 208 0.3 1.1 1013.9 0.0000 0.0000
20:33 29.3 17.2 48 220 0.3 0.6 1014.2 0.0000 0.0000
20:42 29.1 17 48 0 0.6 1014.5 0.0000 0.0000
20:53 28.9 16.8 48 0 0.3 0.8 1014.8 0.0000 0.0000
21:03 28.7 16.9 49 150 0.3 0.6 1014.5 0.0000 0.0000
21:13 28.6 16.8 49 225 0.3 0.6 1014.7 0.0000 0.0000
21:22 28.4 17 50 180 0.3 0.8 1014.8 0.0000 0.0000
21:33 28.3 16.9 50 187 0.3 0.8 1014.8 0.0000 0.0000
21:43 28.1 17 51 168 0.3 0.8 1014.8 0.0000 0.0000
21:52 28 16.9 51 165 0.6 1.1 1014.9 0.0000 0.0000
22:03 27.8 16.7 51 175 0.6 1.1 1014.7 0.0000 0.0000
22:13 27.7 17 52 182 0.3 1.1 1014.9 0.0000 0.0000
22:23 27.6 16.9 52 183 0.3 1.1 1014.8 0.0000 0.0000
22:33 27.5 16.8 52 172 0.3 0.8 1014.7 0.0000 0.0000
22:43 27.4 16.7 52 164 0.3 0.8 1014.8 0.0000 0.0000
22:53 27.3 16.9 53 175 0.3 1.1 1014.9 0.0000 0.0000
23:03 27.2 16.5 52 170 0.3 0.8 1014.9 0.0000 0.0000
23:13 27 16.6 53 169 0.6 1.4 1014.8 0.0000 0.0000
23:23 26.9 16.8 54 181 0.6 1.1 1014.9 0.0000 0.0000
23:33 26.8 16.7 54 163 0.6 1.7 1014.8 0.0000 0.0000
23:43 26.6 16.5 54 160 0.6 1.4 1014.8 0.0000 0.0000
23:53 26.6 16.8 55 198 0.3 0.8 1014.9 0.0000 0.0000

DAY STATISTIC

2018-07-19
TEMPERATURE
AVERAGE
30.5
HIGH
39.1
13:41
LOW
21.6
05:31
PRESSURE
AVERAGE
1015.5
HIGH
1017.8
08:00
LOW
1012.9
17:12
DEWPOINT
AVERAGE
18.5
HIGH
22.2
11:01
LOW
16.5
23:03
HUMIDITY
AVERAGE
51
HIGH
79
05:50
LOW
33
15:12
WIND SPEED
AVERAGE
0.6
HIGH
1.4
13:11
WIND GUST
AVERAGE
1.7
HIGH
4.2
14:32
WIND DIRECTION
PREVAILING
S
37.6%
N
7.5
NE
0.0
E
0.0
SE
3.8
S
37.6
SW
31.6
W
9.0
NW
9.8
PRECIPITATION
RAIN HOUR
0.0
RAIN DAY
0.0
TEMPERATURE (°C)
LOW
21.6
HIGH
39.1
AVERAGE
30.5
PRESSURE (hpa)
LOW
1012.9
HIGH
1017.8
AVERAGE
1015.5
DEVICE